Airport View

Enter AWOS ICAO identifier for current METAR.

ex. KFNL

KHFF 261222Z AUTO 01007KT 10SM CLR 26/18 A3014 RMK AO2 SLP218

26 Jun 2019 12:32

Other Area AWOS: KSOP - KRCZ - KMEB - KPOB

TAF KPOB 260900Z 2609/2715 36009KT 9999 FEW050 SCT200 QNH3001INS BECMG 2623/2624 33006KT 9999 BKN230 QNH3006INS BECMG 2705/2706 33009KT 9999 FEW230 QNH3009INS TX35/2621Z TN20/2709Z